Time;durP1;ratioP1;P1;durP2;ratioP2;P2;SDS_P1;SDS_P2;PMS_P1;PMS_P2;Temp;Humidity;BMP_temperature;BMP_pressure;BME280_temperature;BME280_humidity;BME280_pressure;Samples;Min_cycle;Max_cycle;Signal;HPM_P1;HPM_P2
2020/12/27 00:00:02;;;;;;;;;;;11.10;92.30;;;;;;2097543;28;716;-53
2020/12/27 00:01:29;;;;;;;;;;;11.10;92.00;;;;;;2086169;28;752;-51
2020/12/27 00:02:49;;;;;;;;;;;11.10;92.00;;;;;;2090295;28;1369;-54
2020/12/27 00:04:08;;;;;;;;;;;11.10;92.40;;;;;;2093725;28;734;-54
2020/12/27 00:05:27;;;;;;;;;;;11.10;92.40;;;;;;2093412;28;747;-53
2020/12/27 00:06:46;;;;;;;;;;;11.10;92.40;;;;;;2095708;28;715;-52
2020/12/27 00:08:06;;;;;;;;;;;11.00;92.10;;;;;;2088837;28;748;-55
2020/12/27 00:09:25;;;;;;;;;;;11.00;92.00;;;;;;2083154;28;994;-52
2020/12/27 00:10:44;;;;;;;;;;;11.00;92.00;;;;;;2096195;28;784;-52
2020/12/27 00:12:04;;;;;;;;;;;11.10;92.10;;;;;;2093819;28;758;-53
2020/12/27 00:13:23;;;;;;;;;;;11.00;92.00;;;;;;2101662;28;1435;-54
2020/12/27 00:14:42;;;;;;;;;;;11.00;92.00;;;;;;2090054;28;944;-56
2020/12/27 00:16:01;;;;;;;;;;;11.00;92.00;;;;;;2097837;28;1914;-53
2020/12/27 00:17:21;;;;;;;;;;;11.00;92.10;;;;;;2097774;28;732;-55
2020/12/27 00:18:40;;;;;;;;;;;11.00;92.10;;;;;;2097750;28;1032;-52
2020/12/27 00:19:59;;;;;;;;;;;11.00;92.10;;;;;;2088963;28;718;-54
2020/12/27 00:21:18;;;;;;;;;;;11.00;92.00;;;;;;2094173;28;756;-53
2020/12/27 00:22:37;;;;;;;;;;;11.00;92.00;;;;;;2097876;28;1349;-54
2020/12/27 00:23:57;;;;;;;;;;;11.00;92.40;;;;;;2097609;28;711;-53
2020/12/27 00:25:16;;;;;;;;;;;11.00;92.10;;;;;;2079968;28;746;-52
2020/12/27 00:26:35;;;;;;;;;;;11.00;92.10;;;;;;2082128;28;1895;-52
2020/12/27 00:27:54;;;;;;;;;;;11.00;92.00;;;;;;2072332;28;1021;-52
2020/12/27 00:29:13;;;;;;;;;;;11.00;92.10;;;;;;2080568;28;1169;-53
2020/12/27 00:30:33;;;;;;;;;;;11.00;92.10;;;;;;2080484;28;726;-55
2020/12/27 00:31:52;;;;;;;;;;;11.00;92.10;;;;;;2085672;28;747;-52
2020/12/27 00:33:11;;;;;;;;;;;11.00;92.10;;;;;;2097151;28;1445;-54
2020/12/27 00:34:31;;;;;;;;;;;11.00;92.10;;;;;;2083933;28;769;-51
2020/12/27 00:35:50;;;;;;;;;;;11.00;92.10;;;;;;2085660;28;786;-51
2020/12/27 00:37:10;;;;;;;;;;;11.00;92.10;;;;;;2089363;28;751;-51
2020/12/27 00:38:29;;;;;;;;;;;11.00;92.10;;;;;;2089611;28;762;-52
2020/12/27 00:39:48;;;;;;;;;;;11.00;92.10;;;;;;2089467;28;741;-51
2020/12/27 00:41:08;;;;;;;;;;;11.00;92.10;;;;;;2089278;28;796;-51
2020/12/27 00:42:27;;;;;;;;;;;11.00;92.40;;;;;;2089486;28;1049;-51
2020/12/27 00:43:48;;;;;;;;;;;11.00;92.10;;;;;;2085655;28;992;-52
2020/12/27 00:45:07;;;;;;;;;;;11.00;92.10;;;;;;2090997;28;1192;-52
2020/12/27 00:46:26;;;;;;;;;;;11.00;92.10;;;;;;2088367;28;743;-53
2020/12/27 00:47:45;;;;;;;;;;;11.00;92.10;;;;;;2094084;28;726;-51
2020/12/27 00:49:05;;;;;;;;;;;11.00;92.10;;;;;;2088932;28;743;-52
2020/12/27 00:50:24;;;;;;;;;;;11.00;92.20;;;;;;2093678;28;739;-52
2020/12/27 00:51:43;;;;;;;;;;;11.00;92.10;;;;;;2089019;28;739;-51
2020/12/27 00:53:02;;;;;;;;;;;10.90;92.10;;;;;;2085488;28;1368;-51
2020/12/27 00:54:22;;;;;;;;;;;10.90;92.10;;;;;;2088735;28;739;-51
2020/12/27 00:55:42;;;;;;;;;;;10.90;92.10;;;;;;2093711;28;724;-53
2020/12/27 00:57:02;;;;;;;;;;;10.90;92.00;;;;;;2080453;28;767;-52
2020/12/27 00:58:23;;;;;;;;;;;10.90;92.10;;;;;;2090033;28;756;-52
2020/12/27 00:59:43;;;;;;;;;;;10.90;92.10;;;;;;2088702;28;777;-52
2020/12/27 01:01:06;;;;;;;;;;;10.90;92.10;;;;;;2102477;28;1021;-51
2020/12/27 01:02:25;;;;;;;;;;;10.90;92.10;;;;;;2081114;28;1361;-51
2020/12/27 01:04:07;;;;;;;;;;;10.90;92.00;;;;;;2085339;28;1092;-50
2020/12/27 01:05:27;;;;;;;;;;;10.90;92.00;;;;;;2091227;28;749;-51
2020/12/27 01:06:47;;;;;;;;;;;10.90;92.10;;;;;;2081053;28;774;-52
2020/12/27 01:08:08;;;;;;;;;;;10.90;92.10;;;;;;2072398;28;707;-51
2020/12/27 01:09:27;;;;;;;;;;;10.90;92.10;;;;;;2069232;28;786;-52
2020/12/27 01:10:46;;;;;;;;;;;10.90;92.20;;;;;;2082288;28;1241;-52
2020/12/27 01:12:05;;;;;;;;;;;10.90;92.20;;;;;;2084812;28;1135;-52
2020/12/27 01:13:27;;;;;;;;;;;10.90;92.20;;;;;;2087412;28;1368;-52
2020/12/27 01:14:46;;;;;;;;;;;10.90;92.10;;;;;;2086434;28;1039;-50
2020/12/27 01:16:22;;;;;;;;;;;10.90;92.10;;;;;;2081045;28;1935;-51
2020/12/27 01:17:41;;;;;;;;;;;10.90;92.10;;;;;;2078746;28;766;-52
2020/12/27 01:19:02;;;;;;;;;;;10.90;92.10;;;;;;2079146;28;765;-51
2020/12/27 01:20:29;;;;;;;;;;;10.90;92.20;;;;;;2079481;28;717;-51
2020/12/27 01:21:49;;;;;;;;;;;10.90;92.20;;;;;;2081960;28;742;-51
2020/12/27 01:23:15;;;;;;;;;;;10.90;92.10;;;;;;2096054;28;1440;-52
2020/12/27 01:24:35;;;;;;;;;;;10.90;92.10;;;;;;2071587;28;730;-52
2020/12/27 01:25:54;;;;;;;;;;;10.90;92.10;;;;;;2077082;28;756;-51
2020/12/27 01:27:13;;;;;;;;;;;10.90;92.20;;;;;;2091259;28;770;-52
2020/12/27 01:28:32;;;;;;;;;;;10.90;92.50;;;;;;2091076;28;742;-53
2020/12/27 01:29:58;;;;;;;;;;;10.90;92.10;;;;;;2081401;28;748;-53
2020/12/27 01:31:31;;;;;;;;;;;10.90;92.10;;;;;;2090036;28;719;-52
2020/12/27 01:32:56;;;;;;;;;;;10.90;92.20;;;;;;2074060;28;1421;-52
2020/12/27 01:34:16;;;;;;;;;;;10.90;92.30;;;;;;2092841;28;714;-53
2020/12/27 01:35:36;;;;;;;;;;;10.90;92.20;;;;;;2084215;28;744;-51
2020/12/27 01:36:55;;;;;;;;;;;10.90;92.10;;;;;;2086723;28;1973;-51
2020/12/27 01:38:15;;;;;;;;;;;10.90;92.30;;;;;;2081375;28;720;-51
2020/12/27 01:39:35;;;;;;;;;;;10.90;92.20;;;;;;2081680;28;774;-51
2020/12/27 01:41:01;;;;;;;;;;;10.90;92.20;;;;;;2090030;28;721;-53
2020/12/27 01:42:20;;;;;;;;;;;10.90;92.10;;;;;;2086176;28;763;-53
2020/12/27 01:43:39;;;;;;;;;;;10.90;92.40;;;;;;2088921;28;984;-53
2020/12/27 01:44:59;;;;;;;;;;;10.90;92.20;;;;;;2084560;28;1012;-52
2020/12/27 01:46:39;;;;;;;;;;;10.90;92.20;;;;;;2081840;28;780;-52
2020/12/27 01:48:08;;;;;;;;;;;10.90;92.10;;;;;;2081570;28;758;-51
2020/12/27 01:49:28;;;;;;;;;;;10.90;92.10;;;;;;2070800;28;726;-50
2020/12/27 01:50:49;;;;;;;;;;;10.80;92.10;;;;;;2075508;28;787;-52
2020/12/27 01:52:22;;;;;;;;;;;10.80;92.10;;;;;;2064203;28;723;-50
2020/12/27 01:53:54;;;;;;;;;;;10.80;92.20;;;;;;2080247;28;733;-52
2020/12/27 01:55:39;;;;;;;;;;;10.80;92.20;;;;;;2078790;28;1461;-52
2020/12/27 01:57:00;;;;;;;;;;;10.80;92.10;;;;;;2073421;28;768;-51
2020/12/27 01:58:25;;;;;;;;;;;10.80;92.10;;;;;;2092249;28;807;-52
2020/12/27 01:59:58;;;;;;;;;;;10.80;92.10;;;;;;2082982;28;770;-52
2020/12/27 02:01:33;;;;;;;;;;;10.80;92.10;;;;;;2090567;28;761;-52
2020/12/27 02:03:30;;;;;;;;;;;10.80;92.10;;;;;;2072007;28;1359;-52
2020/12/27 02:04:57;;;;;;;;;;;10.80;92.20;;;;;;2089157;28;717;-52
2020/12/27 02:06:17;;;;;;;;;;;10.80;92.10;;;;;;2090990;28;724;-53
2020/12/27 02:07:38;;;;;;;;;;;10.80;92.40;;;;;;2073425;28;731;-52
2020/12/27 02:09:09;;;;;;;;;;;10.80;92.10;;;;;;2088027;28;832;-52
2020/12/27 02:10:38;;;;;;;;;;;10.80;92.00;;;;;;2079773;28;951;-51
2020/12/27 02:12:02;;;;;;;;;;;10.80;92.00;;;;;;2089617;28;1086;-52
2020/12/27 02:13:22;;;;;;;;;;;10.80;92.10;;;;;;2086321;28;1439;-51
2020/12/27 02:14:41;;;;;;;;;;;10.80;92.10;;;;;;2095051;28;900;-52
2020/12/27 02:16:01;;;;;;;;;;;10.80;92.00;;;;;;2089143;28;1984;-53
2020/12/27 02:17:26;;;;;;;;;;;10.80;92.10;;;;;;2090471;28;834;-52
2020/12/27 02:19:12;;;;;;;;;;;10.80;92.10;;;;;;2092942;28;2047;-52
2020/12/27 02:20:35;;;;;;;;;;;10.80;92.10;;;;;;2080126;28;1239;-51
2020/12/27 02:22:00;;;;;;;;;;;10.80;92.10;;;;;;2076319;28;887;-52
2020/12/27 02:23:58;;;;;;;;;;;10.80;92.00;;;;;;2073755;28;949;-54
2020/12/27 02:25:18;;;;;;;;;;;10.80;92.00;;;;;;2067345;28;1040;-52
2020/12/27 02:26:54;;;;;;;;;;;10.80;92.40;;;;;;2067004;28;812;-52
2020/12/27 02:28:15;;;;;;;;;;;10.80;92.10;;;;;;2068158;28;856;-52
2020/12/27 02:29:36;;;;;;;;;;;10.80;92.10;;;;;;2081977;28;997;-51
2020/12/27 02:30:57;;;;;;;;;;;10.80;92.10;;;;;;2082816;28;769;-50
2020/12/27 02:32:16;;;;;;;;;;;10.80;92.10;;;;;;2098821;28;741;-51
2020/12/27 02:33:39;;;;;;;;;;;10.80;92.10;;;;;;2087484;28;772;-53
2020/12/27 02:34:58;;;;;;;;;;;10.80;92.10;;;;;;2088174;28;1020;-52
2020/12/27 02:36:18;;;;;;;;;;;10.80;92.10;;;;;;2074575;28;1962;-53
2020/12/27 02:37:39;;;;;;;;;;;10.70;92.00;;;;;;2091737;28;778;-51
2020/12/27 02:39:08;;;;;;;;;;;10.80;92.10;;;;;;2092464;28;739;-51
2020/12/27 02:40:29;;;;;;;;;;;10.80;92.40;;;;;;2089243;28;777;-51
2020/12/27 02:42:06;;;;;;;;;;;10.80;92.20;;;;;;2081508;28;1008;-53
2020/12/27 02:43:26;;;;;;;;;;;10.80;92.30;;;;;;2094728;28;1375;-52
2020/12/27 02:46:36;;;;;;;;;;;10.70;92.10;;;;;;2098135;28;741;-51
2020/12/27 02:48:22;;;;;;;;;;;10.70;92.10;;;;;;2082190;28;1000;-51
2020/12/27 02:49:48;;;;;;;;;;;10.70;92.00;;;;;;2081454;28;735;-53
2020/12/27 02:51:10;;;;;;;;;;;10.70;92.00;;;;;;2087523;28;725;-53
2020/12/27 02:52:30;;;;;;;;;;;10.70;92.10;;;;;;2081060;28;795;-52
2020/12/27 02:53:50;;;;;;;;;;;10.70;92.00;;;;;;2099862;28;755;-53
2020/12/27 02:55:10;;;;;;;;;;;10.70;92.10;;;;;;2091852;28;789;-52
2020/12/27 02:56:39;;;;;;;;;;;10.70;92.00;;;;;;2087295;28;1910;-51
2020/12/27 02:57:59;;;;;;;;;;;10.70;92.00;;;;;;2101517;28;769;-51
2020/12/27 02:59:19;;;;;;;;;;;10.70;92.00;;;;;;2101362;28;719;-52
2020/12/27 03:00:40;;;;;;;;;;;10.70;92.10;;;;;;2105573;28;758;-52
2020/12/27 03:02:18;;;;;;;;;;;10.70;92.10;;;;;;2098838;28;737;-52
2020/12/27 03:03:53;;;;;;;;;;;10.70;92.00;;;;;;2089430;28;723;-52
2020/12/27 03:05:18;;;;;;;;;;;10.70;92.00;;;;;;2088833;28;702;-52
2020/12/27 03:06:37;;;;;;;;;;;10.70;92.00;;;;;;2102669;28;873;-52
2020/12/27 03:08:06;;;;;;;;;;;10.70;92.00;;;;;;2087946;28;1238;-52
2020/12/27 03:09:44;;;;;;;;;;;10.70;92.10;;;;;;2089458;28;752;-52
2020/12/27 03:11:18;;;;;;;;;;;10.70;92.00;;;;;;2104810;28;771;-52
2020/12/27 03:12:37;;;;;;;;;;;10.70;92.00;;;;;;2086617;28;1442;-53
2020/12/27 03:13:57;;;;;;;;;;;10.70;92.10;;;;;;2089223;28;1346;-52
2020/12/27 03:15:16;;;;;;;;;;;10.70;92.10;;;;;;2087219;28;1051;-52
2020/12/27 03:16:59;;;;;;;;;;;10.70;92.10;;;;;;2097233;28;1971;-52
2020/12/27 03:18:45;;;;;;;;;;;10.70;92.00;;;;;;2089161;28;779;-52
2020/12/27 03:20:24;;;;;;;;;;;10.70;92.10;;;;;;2097947;28;757;-50
2020/12/27 03:21:54;;;;;;;;;;;10.70;92.00;;;;;;2085874;28;760;-52
2020/12/27 03:23:43;;;;;;;;;;;10.70;92.00;;;;;;2087970;28;1251;-50
2020/12/27 03:25:09;;;;;;;;;;;10.70;92.00;;;;;;2086426;28;777;-51
2020/12/27 03:26:29;;;;;;;;;;;10.70;92.00;;;;;;2082085;28;2362;-53
2020/12/27 03:27:49;;;;;;;;;;;10.70;92.40;;;;;;2080007;28;1682;-52
2020/12/27 03:29:08;;;;;;;;;;;10.70;92.00;;;;;;2080663;28;1280;-51
2020/12/27 03:30:29;;;;;;;;;;;10.70;92.10;;;;;;2093440;28;904;-51
2020/12/27 03:31:53;;;;;;;;;;;10.70;92.10;;;;;;2084336;28;1044;-51
2020/12/27 03:33:14;;;;;;;;;;;10.70;92.00;;;;;;2088952;28;1310;-51
2020/12/27 03:34:45;;;;;;;;;;;10.60;92.20;;;;;;2086588;28;770;-50
2020/12/27 03:36:04;;;;;;;;;;;10.70;92.00;;;;;;2093994;28;1967;-51
2020/12/27 03:37:35;;;;;;;;;;;10.70;92.00;;;;;;2085564;28;1104;-52
2020/12/27 03:39:03;;;;;;;;;;;10.70;92.00;;;;;;2088871;28;1280;-53
2020/12/27 03:40:46;;;;;;;;;;;10.70;92.00;;;;;;2089796;28;1027;-51
2020/12/27 03:42:26;;;;;;;;;;;10.70;92.00;;;;;;2100045;28;948;-53
2020/12/27 03:43:54;;;;;;;;;;;10.70;91.90;;;;;;2086655;28;1094;-52
2020/12/27 03:45:30;;;;;;;;;;;10.70;91.90;;;;;;2087169;28;781;-53
2020/12/27 03:47:08;;;;;;;;;;;10.70;92.30;;;;;;2081123;28;718;-53
2020/12/27 03:48:37;;;;;;;;;;;10.70;91.90;;;;;;2082111;28;1439;-52
2020/12/27 03:50:22;;;;;;;;;;;10.70;92.10;;;;;;2087218;28;1278;-51
2020/12/27 03:51:46;;;;;;;;;;;10.60;91.90;;;;;;2073124;28;1286;-52
2020/12/27 03:53:10;;;;;;;;;;;10.60;91.90;;;;;;2082337;28;1408;-52
2020/12/27 03:54:33;;;;;;;;;;;10.60;91.90;;;;;;2099159;28;1265;-52
2020/12/27 03:56:09;;;;;;;;;;;10.60;92.00;;;;;;2086894;28;1894;-53
2020/12/27 03:57:47;;;;;;;;;;;10.60;92.30;;;;;;2089967;28;1552;-52
2020/12/27 03:59:22;;;;;;;;;;;10.60;91.90;;;;;;2104547;28;1101;-52
2020/12/27 04:00:46;;;;;;;;;;;10.60;91.90;;;;;;2089934;28;1053;-52
2020/12/27 04:02:25;;;;;;;;;;;10.60;91.90;;;;;;2092639;28;1185;-52
2020/12/27 04:03:44;;;;;;;;;;;10.60;91.90;;;;;;2080870;28;2054;-51
2020/12/27 04:05:11;;;;;;;;;;;10.60;92.20;;;;;;2074603;28;1230;-52
2020/12/27 04:06:30;;;;;;;;;;;10.60;91.80;;;;;;2090749;28;1173;-51
2020/12/27 04:08:05;;;;;;;;;;;10.60;91.90;;;;;;2082477;28;1563;-53
2020/12/27 04:09:26;;;;;;;;;;;10.60;91.80;;;;;;2072633;28;1255;-52
2020/12/27 04:10:45;;;;;;;;;;;10.60;92.20;;;;;;2086609;28;1231;-54
2020/12/27 04:12:04;;;;;;;;;;;10.60;92.10;;;;;;2082251;28;1210;-51
2020/12/27 04:13:23;;;;;;;;;;;10.60;92.40;;;;;;2076767;28;1453;-51
2020/12/27 04:14:49;;;;;;;;;;;10.60;91.90;;;;;;2090699;28;1193;-52
2020/12/27 04:16:15;;;;;;;;;;;10.60;91.80;;;;;;2080095;28;1969;-51
2020/12/27 04:17:35;;;;;;;;;;;10.60;91.80;;;;;;2085137;28;1378;-51
2020/12/27 04:18:55;;;;;;;;;;;10.60;91.90;;;;;;2080605;28;1216;-52
2020/12/27 04:20:22;;;;;;;;;;;10.60;91.90;;;;;;2090607;28;1289;-51
2020/12/27 04:21:42;;;;;;;;;;;10.70;92.30;;;;;;2077118;28;1274;-51
2020/12/27 04:23:15;;;;;;;;;;;10.70;92.20;;;;;;2088298;28;1475;-52
2020/12/27 04:24:35;;;;;;;;;;;10.70;92.10;;;;;;2076458;28;1348;-53
2020/12/27 04:25:57;;;;;;;;;;;10.70;91.80;;;;;;2099311;28;1226;-52
2020/12/27 04:27:16;;;;;;;;;;;10.80;91.60;;;;;;2086225;28;1153;-51
2020/12/27 04:28:36;;;;;;;;;;;10.90;91.30;;;;;;2093378;28;1243;-53
2020/12/27 04:29:56;;;;;;;;;;;10.90;91.10;;;;;;2073010;28;1252;-54
2020/12/27 04:31:27;;;;;;;;;;;11.00;90.80;;;;;;2079917;28;1287;-51
2020/12/27 04:32:53;;;;;;;;;;;11.00;90.60;;;;;;2073347;28;1500;-53
2020/12/27 04:34:16;;;;;;;;;;;11.10;90.40;;;;;;2079789;28;1295;-52
2020/12/27 04:35:36;;;;;;;;;;;11.20;90.00;;;;;;2077867;28;1166;-52
2020/12/27 04:36:55;;;;;;;;;;;11.20;89.40;;;;;;2092935;28;1959;-51
2020/12/27 04:38:20;;;;;;;;;;;11.30;89.10;;;;;;2090430;28;1268;-53
2020/12/27 04:39:39;;;;;;;;;;;11.30;88.30;;;;;;2081969;28;1132;-54
2020/12/27 04:41:01;;;;;;;;;;;11.40;87.60;;;;;;2080588;28;1521;-52
2020/12/27 04:42:21;;;;;;;;;;;11.50;87.00;;;;;;2077879;28;1433;-53
2020/12/27 04:43:48;;;;;;;;;;;11.50;86.70;;;;;;2075420;28;1219;-52
2020/12/27 04:45:07;;;;;;;;;;;11.60;86.00;;;;;;2083250;28;1401;-53
2020/12/27 04:46:46;;;;;;;;;;;11.60;85.90;;;;;;2077711;28;1378;-53
2020/12/27 04:48:17;;;;;;;;;;;11.70;84.10;;;;;;2082839;28;1410;-51
2020/12/27 04:49:54;;;;;;;;;;;11.80;83.40;;;;;;2077079;28;1176;-52
2020/12/27 04:51:14;;;;;;;;;;;11.90;83.10;;;;;;2081271;28;1123;-51
2020/12/27 04:52:39;;;;;;;;;;;11.90;82.40;;;;;;2081040;28;1464;-51
2020/12/27 04:54:09;;;;;;;;;;;12.00;81.80;;;;;;2076852;28;1140;-51
2020/12/27 04:55:39;;;;;;;;;;;12.10;81.30;;;;;;2078910;28;1209;-52
2020/12/27 04:57:07;;;;;;;;;;;12.10;80.40;;;;;;2079210;28;1965;-52
2020/12/27 04:58:26;;;;;;;;;;;12.20;80.60;;;;;;2072268;28;1271;-51
2020/12/27 04:59:57;;;;;;;;;;;12.20;79.60;;;;;;2094219;28;1246;-53
2020/12/27 05:01:39;;;;;;;;;;;12.30;79.00;;;;;;2080728;28;1233;-51
2020/12/27 05:03:22;;;;;;;;;;;12.40;78.10;;;;;;2097565;28;1486;-53
2020/12/27 05:04:42;;;;;;;;;;;12.50;78.20;;;;;;2103470;28;1199;-50
2020/12/27 05:06:18;;;;;;;;;;;12.50;77.00;;;;;;2082770;28;1437;-54
2020/12/27 05:07:39;;;;;;;;;;;12.50;76.70;;;;;;2080715;28;1259;-52
2020/12/27 05:09:13;;;;;;;;;;;12.50;76.50;;;;;;2078795;28;1445;-53
2020/12/27 05:10:32;;;;;;;;;;;12.50;76.20;;;;;;2089546;28;1073;-53
2020/12/27 05:11:55;;;;;;;;;;;12.50;76.40;;;;;;2104409;28;1308;-52
2020/12/27 05:13:15;;;;;;;;;;;12.50;76.50;;;;;;2090637;28;1403;-53
2020/12/27 05:14:40;;;;;;;;;;;12.50;77.20;;;;;;2078605;28;1159;-54
2020/12/27 05:16:03;;;;;;;;;;;12.50;76.70;;;;;;2086504;28;1783;-54
2020/12/27 05:17:22;;;;;;;;;;;12.50;76.90;;;;;;2083369;28;1319;-53
2020/12/27 05:18:51;;;;;;;;;;;12.50;77.10;;;;;;2087654;28;1225;-53
2020/12/27 05:20:13;;;;;;;;;;;12.50;77.30;;;;;;2094868;28;1178;-54
2020/12/27 05:21:37;;;;;;;;;;;12.40;77.50;;;;;;2098037;28;1149;-51
2020/12/27 05:22:59;;;;;;;;;;;12.40;77.80;;;;;;2104773;28;1523;-54
2020/12/27 05:24:35;;;;;;;;;;;12.40;78.10;;;;;;2087523;28;1011;-54
2020/12/27 05:26:18;;;;;;;;;;;12.40;78.30;;;;;;2095315;28;1114;-53
2020/12/27 05:27:50;;;;;;;;;;;12.40;78.90;;;;;;2077065;28;1113;-51
2020/12/27 05:29:42;;;;;;;;;;;12.40;80.60;;;;;;2077462;28;1257;-51
2020/12/27 05:31:22;;;;;;;;;;;12.40;80.80;;;;;;2069826;28;1214;-51
2020/12/27 05:33:00;;;;;;;;;;;12.40;80.90;;;;;;2082933;28;1498;-50
2020/12/27 05:34:48;;;;;;;;;;;12.40;81.00;;;;;;2078845;28;1175;-52
2020/12/27 05:36:26;;;;;;;;;;;12.40;80.40;;;;;;2082970;28;1972;-53
2020/12/27 05:37:51;;;;;;;;;;;12.40;80.80;;;;;;2081986;28;1510;-50
2020/12/27 05:39:29;;;;;;;;;;;12.30;81.30;;;;;;2084516;28;1258;-52
2020/12/27 05:41:01;;;;;;;;;;;12.30;81.70;;;;;;2086834;28;1409;-52
2020/12/27 05:42:26;;;;;;;;;;;12.20;82.20;;;;;;2080681;28;1185;-52
2020/12/27 05:43:46;;;;;;;;;;;12.20;82.50;;;;;;2097241;28;1205;-54
2020/12/27 05:45:12;;;;;;;;;;;12.20;82.90;;;;;;2087621;28;1458;-53
2020/12/27 05:46:31;;;;;;;;;;;12.20;83.20;;;;;;2094273;28;1192;-52
2020/12/27 05:47:51;;;;;;;;;;;12.20;83.50;;;;;;2081930;28;1378;-52
2020/12/27 05:49:11;;;;;;;;;;;12.10;83.50;;;;;;2087502;28;1211;-54
2020/12/27 05:50:31;;;;;;;;;;;12.10;84.40;;;;;;2103677;28;1174;-53
2020/12/27 05:51:57;;;;;;;;;;;12.10;84.10;;;;;;2087775;28;1179;-51
2020/12/27 05:53:20;;;;;;;;;;;12.10;84.30;;;;;;2071012;28;1538;-51
2020/12/27 05:54:45;;;;;;;;;;;12.10;84.40;;;;;;2073191;28;1254;-51
2020/12/27 05:56:05;;;;;;;;;;;12.00;84.50;;;;;;2080476;28;1358;-50
2020/12/27 05:57:32;;;;;;;;;;;12.10;84.70;;;;;;2074382;28;1400;-53
2020/12/27 05:58:52;;;;;;;;;;;12.00;85.50;;;;;;2085068;28;1492;-52
2020/12/27 06:00:17;;;;;;;;;;;12.00;85.10;;;;;;2083864;28;1173;-52
2020/12/27 06:01:44;;;;;;;;;;;12.00;85.40;;;;;;2081478;28;1419;-52
2020/12/27 06:03:06;;;;;;;;;;;12.00;85.30;;;;;;2085111;28;1389;-52
2020/12/27 06:04:51;;;;;;;;;;;12.00;85.60;;;;;;2065184;28;1115;-53
2020/12/27 06:06:21;;;;;;;;;;;11.90;85.70;;;;;;2078104;28;1607;-50
2020/12/27 06:07:44;;;;;;;;;;;11.90;85.80;;;;;;2073442;28;1295;-54
2020/12/27 06:09:05;;;;;;;;;;;11.90;86.80;;;;;;2091127;28;1337;-52
2020/12/27 06:10:30;;;;;;;;;;;11.90;86.40;;;;;;2079133;28;1443;-52
2020/12/27 06:11:56;;;;;;;;;;;11.90;86.40;;;;;;2080382;28;1197;-51
2020/12/27 06:13:46;;;;;;;;;;;12.00;86.60;;;;;;2069200;28;1358;-51
2020/12/27 06:15:25;;;;;;;;;;;12.00;86.50;;;;;;2090398;28;1211;-54
2020/12/27 06:17:17;;;;;;;;;;;12.00;86.20;;;;;;2068343;28;1468;-54
2020/12/27 06:19:03;;;;;;;;;;;12.00;85.90;;;;;;2076614;28;1206;-50
2020/12/27 06:20:33;;;;;;;;;;;12.00;85.60;;;;;;2073930;28;1217;-52
2020/12/27 06:22:02;;;;;;;;;;;12.00;85.60;;;;;;2079995;28;1031;-55
2020/12/27 06:23:22;;;;;;;;;;;12.00;85.40;;;;;;2080199;28;2002;-53
2020/12/27 06:24:48;;;;;;;;;;;12.00;85.60;;;;;;2089227;28;1432;-52
2020/12/27 06:26:08;;;;;;;;;;;12.00;85.60;;;;;;2078503;28;1181;-51
2020/12/27 06:27:31;;;;;;;;;;;12.00;85.60;;;;;;2083557;28;1118;-50
2020/12/27 06:28:50;;;;;;;;;;;12.00;85.60;;;;;;2097289;28;1360;-52
2020/12/27 06:30:40;;;;;;;;;;;12.10;85.50;;;;;;2091354;28;1200;-52
2020/12/27 06:32:33;;;;;;;;;;;12.10;85.20;;;;;;2092439;28;1160;-52
2020/12/27 06:33:53;;;;;;;;;;;12.20;84.50;;;;;;2080508;28;1250;-53
2020/12/27 06:35:33;;;;;;;;;;;12.20;84.20;;;;;;2083906;28;1196;-51
2020/12/27 06:36:53;;;;;;;;;;;12.30;83.60;;;;;;2079154;28;1906;-52
2020/12/27 06:38:35;;;;;;;;;;;12.40;83.20;;;;;;2097380;28;1257;-52
2020/12/27 06:40:04;;;;;;;;;;;12.40;82.60;;;;;;2086362;28;1155;-51
2020/12/27 06:42:03;;;;;;;;;;;12.50;82.00;;;;;;2093809;28;1267;-53
2020/12/27 06:43:38;;;;;;;;;;;12.60;81.30;;;;;;2094787;28;1337;-51
2020/12/27 06:45:06;;;;;;;;;;;12.60;80.60;;;;;;2086614;28;1324;-52
2020/12/27 06:46:47;;;;;;;;;;;12.70;80.00;;;;;;2082002;28;1324;-51
2020/12/27 06:48:29;;;;;;;;;;;12.80;79.60;;;;;;2077560;28;1465;-51
2020/12/27 06:50:22;;;;;;;;;;;12.80;78.80;;;;;;2095571;28;1249;-53
2020/12/27 06:51:53;;;;;;;;;;;12.90;78.30;;;;;;2086156;28;1280;-51
2020/12/27 06:53:39;;;;;;;;;;;13.00;77.70;;;;;;2101724;28;1417;-54
2020/12/27 06:55:06;;;;;;;;;;;13.10;77.20;;;;;;2086611;28;1180;-55
2020/12/27 06:56:56;;;;;;;;;;;13.10;76.60;;;;;;2079181;28;1898;-55
2020/12/27 06:58:31;;;;;;;;;;;13.30;76.40;;;;;;2087915;28;1275;-53
2020/12/27 06:59:57;;;;;;;;;;;13.40;76.10;;;;;;2094100;28;1285;-51
2020/12/27 07:01:17;;;;;;;;;;;13.50;75.50;;;;;;2096829;28;1131;-50
2020/12/27 07:02:36;;;;;;;;;;;13.50;74.70;;;;;;2097386;28;1117;-51
2020/12/27 07:04:16;;;;;;;;;;;13.60;75.50;;;;;;2087004;28;1423;-54
2020/12/27 07:05:36;;;;;;;;;;;13.60;75.00;;;;;;2094915;28;1386;-51
2020/12/27 07:06:55;;;;;;;;;;;13.70;74.00;;;;;;2084056;28;1535;-50
2020/12/27 07:08:38;;;;;;;;;;;13.70;73.80;;;;;;2092344;28;1313;-52
2020/12/27 07:09:57;;;;;;;;;;;13.80;73.30;;;;;;2083672;28;1366;-54
2020/12/27 07:11:17;;;;;;;;;;;13.90;72.80;;;;;;2093338;28;1785;-50
2020/12/27 07:12:36;;;;;;;;;;;13.90;72.50;;;;;;2092496;28;1095;-52
2020/12/27 07:13:55;;;;;;;;;;;14.00;72.70;;;;;;2079687;28;1115;-51
2020/12/27 07:15:15;;;;;;;;;;;14.10;71.60;;;;;;2089117;28;1272;-50
2020/12/27 07:16:40;;;;;;;;;;;14.10;71.20;;;;;;2083816;28;1910;-57
2020/12/27 07:18:06;;;;;;;;;;;14.10;70.80;;;;;;2089794;28;1394;-50
2020/12/27 07:19:26;;;;;;;;;;;14.20;70.90;;;;;;2094530;28;1072;-52
2020/12/27 07:20:45;;;;;;;;;;;14.20;70.50;;;;;;2079712;28;1070;-52
2020/12/27 07:22:05;;;;;;;;;;;14.20;70.20;;;;;;2084107;28;1411;-54
2020/12/27 07:23:25;;;;;;;;;;;14.20;70.30;;;;;;2074960;28;1344;-52
2020/12/27 07:24:47;;;;;;;;;;;14.30;70.30;;;;;;2076189;28;1359;-52
2020/12/27 07:26:06;;;;;;;;;;;14.30;70.20;;;;;;2089859;28;1319;-53
2020/12/27 07:27:26;;;;;;;;;;;14.30;70.00;;;;;;2089294;28;1203;-52
2020/12/27 07:28:46;;;;;;;;;;;14.40;70.00;;;;;;2078455;28;1210;-55
2020/12/27 07:30:05;;;;;;;;;;;14.40;69.80;;;;;;2076300;28;1409;-52
2020/12/27 07:31:24;;;;;;;;;;;14.40;69.60;;;;;;2085368;28;1414;-53
2020/12/27 07:32:43;;;;;;;;;;;14.40;69.30;;;;;;2091506;28;1386;-53
2020/12/27 07:34:03;;;;;;;;;;;14.40;69.40;;;;;;2077399;28;1392;-52
2020/12/27 07:35:23;;;;;;;;;;;14.50;69.50;;;;;;2078205;28;1292;-55
2020/12/27 07:36:42;;;;;;;;;;;14.50;69.50;;;;;;2089326;28;1886;-54
2020/12/27 07:38:01;;;;;;;;;;;14.50;69.50;;;;;;2090883;28;1239;-53
2020/12/27 07:39:20;;;;;;;;;;;14.50;69.50;;;;;;2091603;28;1294;-54
2020/12/27 07:40:41;;;;;;;;;;;14.50;70.40;;;;;;2083310;28;1390;-53
2020/12/27 07:42:00;;;;;;;;;;;14.40;69.70;;;;;;2086887;28;1168;-52
2020/12/27 07:43:20;;;;;;;;;;;14.50;70.00;;;;;;2083379;28;1484;-52
2020/12/27 07:44:39;;;;;;;;;;;14.40;70.10;;;;;;2088835;28;1258;-52
2020/12/27 07:46:05;;;;;;;;;;;14.40;70.20;;;;;;2075046;28;1297;-54
2020/12/27 07:47:24;;;;;;;;;;;14.40;70.50;;;;;;2079474;28;1130;-52
2020/12/27 07:48:43;;;;;;;;;;;14.40;70.60;;;;;;2088038;28;1328;-51
2020/12/27 07:50:06;;;;;;;;;;;14.50;71.60;;;;;;2086989;28;1345;-53
2020/12/27 07:51:25;;;;;;;;;;;14.40;70.90;;;;;;2091395;28;1285;-53
2020/12/27 07:52:57;;;;;;;;;;;14.40;71.00;;;;;;2096788;28;1840;-52
2020/12/27 07:54:17;;;;;;;;;;;14.40;71.00;;;;;;2087214;28;1345;-54
2020/12/27 07:55:39;;;;;;;;;;;14.40;71.30;;;;;;2090763;28;1376;-55
2020/12/27 07:56:58;;;;;;;;;;;14.40;71.50;;;;;;2083285;28;1985;-52
2020/12/27 07:58:17;;;;;;;;;;;14.40;71.60;;;;;;2088731;28;1209;-54
2020/12/27 07:59:37;;;;;;;;;;;14.40;71.80;;;;;;2088518;28;1196;-51
2020/12/27 08:00:56;;;;;;;;;;;14.30;72.00;;;;;;2087943;28;1384;-52
2020/12/27 08:02:15;;;;;;;;;;;14.30;72.30;;;;;;2096735;28;1043;-51
2020/12/27 08:03:34;;;;;;;;;;;14.30;72.60;;;;;;2072654;28;1481;-52
2020/12/27 08:04:53;;;;;;;;;;;14.30;73.50;;;;;;2086259;28;1256;-51
2020/12/27 08:06:15;;;;;;;;;;;14.30;73.10;;;;;;2087161;28;1356;-52
2020/12/27 08:07:34;;;;;;;;;;;14.20;73.30;;;;;;2085237;28;1188;-53
2020/12/27 08:08:59;;;;;;;;;;;14.20;73.50;;;;;;2088060;28;1393;-53
2020/12/27 08:10:20;;;;;;;;;;;14.20;73.80;;;;;;2101707;28;1158;-53
2020/12/27 08:11:42;;;;;;;;;;;14.20;74.70;;;;;;2087948;28;1422;-51
2020/12/27 08:13:02;;;;;;;;;;;14.20;73.90;;;;;;2093276;28;1382;-50
2020/12/27 08:14:22;;;;;;;;;;;14.30;74.10;;;;;;2083049;28;1163;-53
2020/12/27 08:15:41;;;;;;;;;;;14.30;74.10;;;;;;2076702;28;1145;-54
2020/12/27 08:17:00;;;;;;;;;;;14.30;73.90;;;;;;2089808;28;1985;-54
2020/12/27 08:18:19;;;;;;;;;;;14.30;73.80;;;;;;2096592;28;1507;-54
2020/12/27 08:19:38;;;;;;;;;;;14.30;73.70;;;;;;2092872;28;1377;-52
2020/12/27 08:20:58;;;;;;;;;;;14.40;73.80;;;;;;2102435;28;1391;-52
2020/12/27 08:22:20;;;;;;;;;;;14.40;73.70;;;;;;2091159;28;1668;-53
2020/12/27 08:23:39;;;;;;;;;;;14.40;73.60;;;;;;2086404;28;1248;-54
2020/12/27 08:25:11;;;;;;;;;;;14.40;73.90;;;;;;2084080;28;1140;-54
2020/12/27 08:26:30;;;;;;;;;;;14.30;73.10;;;;;;2095857;28;1495;-56
2020/12/27 08:27:56;;;;;;;;;;;14.30;71.60;;;;;;2091485;28;1040;-52